sensor_id;sensor_type;location;lat;lon;timestamp;pressure;altitude;pressure_sealevel;temperature;humidity
15444;BME280;7822;48.146;11.576;2022-11-20T00:02:05;94857.47;;;7.56;72.87
15444;BME280;7822;48.146;11.576;2022-11-20T00:04:33;94849.53;;;7.59;72.99
15444;BME280;7822;48.146;11.576;2022-11-20T00:07:02;94853.06;;;7.58;73.04
15444;BME280;7822;48.146;11.576;2022-11-20T00:09:30;94857.03;;;7.62;73.00
15444;BME280;7822;48.146;11.576;2022-11-20T00:11:58;94860.47;;;7.62;72.88
15444;BME280;7822;48.146;11.576;2022-11-20T00:14:26;94860.09;;;7.67;72.62
15444;BME280;7822;48.146;11.576;2022-11-20T00:16:53;94855.66;;;7.69;72.62
15444;BME280;7822;48.146;11.576;2022-11-20T00:19:21;94858.69;;;7.74;72.32
15444;BME280;7822;48.146;11.576;2022-11-20T00:21:49;94859.75;;;7.71;72.55
15444;BME280;7822;48.146;11.576;2022-11-20T00:24:19;94863.97;;;7.72;72.50
15444;BME280;7822;48.146;11.576;2022-11-20T00:26:46;94863.50;;;7.67;72.64
15444;BME280;7822;48.146;11.576;2022-11-20T00:29:14;94864.09;;;7.71;72.62
15444;BME280;7822;48.146;11.576;2022-11-20T00:31:42;94864.31;;;7.68;72.87
15444;BME280;7822;48.146;11.576;2022-11-20T00:34:09;94861.38;;;7.61;72.99
15444;BME280;7822;48.146;11.576;2022-11-20T00:36:37;94869.81;;;7.63;73.34
15444;BME280;7822;48.146;11.576;2022-11-20T00:39:05;94866.53;;;7.61;73.45
15444;BME280;7822;48.146;11.576;2022-11-20T00:41:34;94872.06;;;7.68;73.40
15444;BME280;7822;48.146;11.576;2022-11-20T00:44:02;94871.38;;;7.77;73.26
15444;BME280;7822;48.146;11.576;2022-11-20T00:46:29;94864.81;;;7.73;72.64
15444;BME280;7822;48.146;11.576;2022-11-20T00:48:57;94872.91;;;7.68;73.04
15444;BME280;7822;48.146;11.576;2022-11-20T00:51:26;94877.59;;;7.74;73.00
15444;BME280;7822;48.146;11.576;2022-11-20T00:53:55;94878.31;;;7.76;72.79
15444;BME280;7822;48.146;11.576;2022-11-20T00:56:26;94881.38;;;7.81;72.57
15444;BME280;7822;48.146;11.576;2022-11-20T00:58:55;94882.66;;;7.87;72.37
15444;BME280;7822;48.146;11.576;2022-11-20T01:01:23;94889.13;;;7.92;72.01
15444;BME280;7822;48.146;11.576;2022-11-20T01:03:53;94888.63;;;7.76;72.09
15444;BME280;7822;48.146;11.576;2022-11-20T01:06:23;94887.72;;;7.77;72.49
15444;BME280;7822;48.146;11.576;2022-11-20T01:08:53;94887.25;;;7.83;72.23
15444;BME280;7822;48.146;11.576;2022-11-20T01:11:23;94891.88;;;7.67;72.62
15444;BME280;7822;48.146;11.576;2022-11-20T01:13:51;94888.63;;;7.76;72.69
15444;BME280;7822;48.146;11.576;2022-11-20T01:16:22;94899.09;;;7.86;72.16
15444;BME280;7822;48.146;11.576;2022-11-20T01:18:51;94893.94;;;7.86;72.15
15444;BME280;7822;48.146;11.576;2022-11-20T01:21:21;94898.63;;;7.92;72.66
15444;BME280;7822;48.146;11.576;2022-11-20T01:23:49;94902.75;;;7.94;71.97
15444;BME280;7822;48.146;11.576;2022-11-20T01:26:18;94893.69;;;7.89;71.51
15444;BME280;7822;48.146;11.576;2022-11-20T01:28:47;94900.38;;;7.91;71.67
15444;BME280;7822;48.146;11.576;2022-11-20T01:31:17;94904.28;;;7.86;71.73
15444;BME280;7822;48.146;11.576;2022-11-20T01:33:48;94901.44;;;7.89;71.79
15444;BME280;7822;48.146;11.576;2022-11-20T01:36:17;94896.28;;;7.89;71.62
15444;BME280;7822;48.146;11.576;2022-11-20T01:38:46;94905.09;;;7.86;71.63
15444;BME280;7822;48.146;11.576;2022-11-20T01:41:15;94902.50;;;7.86;71.75
15444;BME280;7822;48.146;11.576;2022-11-20T01:44:03;94907.56;;;7.88;71.73
15444;BME280;7822;48.146;11.576;2022-11-20T01:46:31;94908.13;;;7.80;72.13
15444;BME280;7822;48.146;11.576;2022-11-20T01:49:02;94907.78;;;7.85;72.04
15444;BME280;7822;48.146;11.576;2022-11-20T01:51:37;94905.91;;;7.87;71.85
15444;BME280;7822;48.146;11.576;2022-11-20T01:54:09;94903.94;;;7.90;71.99
15444;BME280;7822;48.146;11.576;2022-11-20T01:56:41;94900.66;;;7.99;71.55
15444;BME280;7822;48.146;11.576;2022-11-20T01:59:12;94909.53;;;7.95;71.46
15444;BME280;7822;48.146;11.576;2022-11-20T02:01:42;94908.63;;;7.96;71.50
15444;BME280;7822;48.146;11.576;2022-11-20T02:04:13;94900.88;;;7.96;71.35
15444;BME280;7822;48.146;11.576;2022-11-20T02:06:43;94899.94;;;7.97;71.20
15444;BME280;7822;48.146;11.576;2022-11-20T02:09:12;94895.84;;;7.95;71.13
15444;BME280;7822;48.146;11.576;2022-11-20T02:11:39;94893.25;;;7.95;71.18
15444;BME280;7822;48.146;11.576;2022-11-20T02:14:07;94897.81;;;8.02;71.10
15444;BME280;7822;48.146;11.576;2022-11-20T02:16:36;94901.22;;;8.03;70.68
15444;BME280;7822;48.146;11.576;2022-11-20T02:19:09;94899.34;;;7.94;71.12
15444;BME280;7822;48.146;11.576;2022-11-20T02:21:43;94898.63;;;7.92;71.18
15444;BME280;7822;48.146;11.576;2022-11-20T02:24:16;94897.69;;;7.82;71.24
15444;BME280;7822;48.146;11.576;2022-11-20T02:26:48;94897.34;;;7.86;71.41
15444;BME280;7822;48.146;11.576;2022-11-20T02:29:21;94905.81;;;7.88;71.20
15444;BME280;7822;48.146;11.576;2022-11-20T02:31:51;94904.72;;;7.80;71.25
15444;BME280;7822;48.146;11.576;2022-11-20T02:34:20;94906.81;;;7.75;72.06
15444;BME280;7822;48.146;11.576;2022-11-20T02:36:49;94904.69;;;7.69;71.80
15444;BME280;7822;48.146;11.576;2022-11-20T02:39:22;94903.16;;;7.66;71.67
15444;BME280;7822;48.146;11.576;2022-11-20T02:41:52;94909.72;;;7.59;71.77
15444;BME280;7822;48.146;11.576;2022-11-20T02:44:21;94907.69;;;7.52;72.36
15444;BME280;7822;48.146;11.576;2022-11-20T02:46:48;94901.97;;;7.59;72.27
15444;BME280;7822;48.146;11.576;2022-11-20T02:49:16;94899.13;;;7.51;72.28
15444;BME280;7822;48.146;11.576;2022-11-20T02:51:44;94908.75;;;7.60;72.03
15444;BME280;7822;48.146;11.576;2022-11-20T02:54:11;94907.84;;;7.61;72.09
15444;BME280;7822;48.146;11.576;2022-11-20T02:56:41;94917.78;;;7.55;71.96
15444;BME280;7822;48.146;11.576;2022-11-20T02:59:09;94903.22;;;7.54;71.78
15444;BME280;7822;48.146;11.576;2022-11-20T03:01:36;94902.53;;;7.52;71.71
15444;BME280;7822;48.146;11.576;2022-11-20T03:04:05;94904.06;;;7.54;71.73
15444;BME280;7822;48.146;11.576;2022-11-20T03:06:32;94905.59;;;7.57;71.63
15444;BME280;7822;48.146;11.576;2022-11-20T03:09:01;94900.94;;;7.62;71.44
15444;BME280;7822;48.146;11.576;2022-11-20T03:11:28;94897.16;;;7.55;71.05
15444;BME280;7822;48.146;11.576;2022-11-20T03:13:57;94905.00;;;7.53;71.31
15444;BME280;7822;48.146;11.576;2022-11-20T03:16:28;94892.56;;;7.58;71.19
15444;BME280;7822;48.146;11.576;2022-11-20T03:18:56;94897.84;;;7.57;70.94
15444;BME280;7822;48.146;11.576;2022-11-20T03:21:24;94895.84;;;7.60;70.63
15444;BME280;7822;48.146;11.576;2022-11-20T03:23:52;94894.34;;;7.58;70.47
15444;BME280;7822;48.146;11.576;2022-11-20T03:26:22;94899.16;;;7.62;70.53
15444;BME280;7822;48.146;11.576;2022-11-20T03:28:51;94907.72;;;7.63;70.49
15444;BME280;7822;48.146;11.576;2022-11-20T03:31:22;94899.97;;;7.63;70.21
15444;BME280;7822;48.146;11.576;2022-11-20T03:33:51;94900.94;;;7.62;70.05
15444;BME280;7822;48.146;11.576;2022-11-20T03:36:21;94893.06;;;7.63;70.06
15444;BME280;7822;48.146;11.576;2022-11-20T03:38:49;94898.09;;;7.65;70.00
15444;BME280;7822;48.146;11.576;2022-11-20T03:41:18;94895.06;;;7.60;70.13
15444;BME280;7822;48.146;11.576;2022-11-20T03:43:49;94887.19;;;7.61;70.14
15444;BME280;7822;48.146;11.576;2022-11-20T03:46:17;94886.84;;;7.66;69.75
15444;BME280;7822;48.146;11.576;2022-11-20T03:48:47;94882.94;;;7.60;69.93
15444;BME280;7822;48.146;11.576;2022-11-20T03:51:18;94893.59;;;7.56;69.78
15444;BME280;7822;48.146;11.576;2022-11-20T03:53:47;94892.34;;;7.61;69.99
15444;BME280;7822;48.146;11.576;2022-11-20T03:56:17;94896.09;;;7.57;69.77
15444;BME280;7822;48.146;11.576;2022-11-20T03:58:45;94896.19;;;7.56;69.94
15444;BME280;7822;48.146;11.576;2022-11-20T04:01:14;94893.53;;;7.57;70.06
15444;BME280;7822;48.146;11.576;2022-11-20T04:03:43;94903.00;;;7.57;69.98
15444;BME280;7822;48.146;11.576;2022-11-20T04:06:15;94907.31;;;7.45;70.27
15444;BME280;7822;48.146;11.576;2022-11-20T04:08:43;94908.84;;;7.47;70.28
15444;BME280;7822;48.146;11.576;2022-11-20T04:11:19;94897.34;;;7.52;70.38
15444;BME280;7822;48.146;11.576;2022-11-20T04:13:49;94904.06;;;7.54;69.83
15444;BME280;7822;48.146;11.576;2022-11-20T04:16:17;94916.13;;;7.54;69.82
15444;BME280;7822;48.146;11.576;2022-11-20T04:18:45;94909.22;;;7.54;69.70
15444;BME280;7822;48.146;11.576;2022-11-20T04:21:14;94905.44;;;7.47;69.98
15444;BME280;7822;48.146;11.576;2022-11-20T04:23:42;94914.47;;;7.41;70.13
15444;BME280;7822;48.146;11.576;2022-11-20T04:26:11;94910.84;;;7.44;69.70
15444;BME280;7822;48.146;11.576;2022-11-20T04:28:40;94901.47;;;7.54;69.82
15444;BME280;7822;48.146;11.576;2022-11-20T04:31:10;94901.34;;;7.56;69.18
15444;BME280;7822;48.146;11.576;2022-11-20T04:33:38;94893.72;;;7.54;69.04
15444;BME280;7822;48.146;11.576;2022-11-20T04:36:07;94904.66;;;7.58;69.20
15444;BME280;7822;48.146;11.576;2022-11-20T04:38:39;94905.84;;;7.65;69.12
15444;BME280;7822;48.146;11.576;2022-11-20T04:41:09;94899.75;;;7.66;68.80
15444;BME280;7822;48.146;11.576;2022-11-20T04:43:40;94908.69;;;7.73;68.36
15444;BME280;7822;48.146;11.576;2022-11-20T04:46:07;94900.25;;;7.71;68.26
15444;BME280;7822;48.146;11.576;2022-11-20T04:48:35;94909.94;;;7.56;68.42
15444;BME280;7822;48.146;11.576;2022-11-20T04:51:03;94904.09;;;7.65;68.79
15444;BME280;7822;48.146;11.576;2022-11-20T04:53:31;94906.78;;;7.64;68.86
15444;BME280;7822;48.146;11.576;2022-11-20T04:56:01;94910.28;;;7.63;68.45
15444;BME280;7822;48.146;11.576;2022-11-20T04:58:29;94917.00;;;7.65;68.46
15444;BME280;7822;48.146;11.576;2022-11-20T05:01:01;94906.47;;;7.68;68.69
15444;BME280;7822;48.146;11.576;2022-11-20T05:03:30;94905.06;;;7.75;68.68
15444;BME280;7822;48.146;11.576;2022-11-20T05:06:00;94913.00;;;7.61;69.15
15444;BME280;7822;48.146;11.576;2022-11-20T05:08:28;94910.41;;;7.61;69.12
15444;BME280;7822;48.146;11.576;2022-11-20T05:11:00;94911.97;;;7.64;69.46
15444;BME280;7822;48.146;11.576;2022-11-20T05:13:28;94907.38;;;7.67;69.21
15444;BME280;7822;48.146;11.576;2022-11-20T05:16:01;94905.03;;;7.64;69.50
15444;BME280;7822;48.146;11.576;2022-11-20T05:18:29;94904.78;;;7.67;69.26
15444;BME280;7822;48.146;11.576;2022-11-20T05:20:57;94898.47;;;7.71;69.11
15444;BME280;7822;48.146;11.576;2022-11-20T05:23:26;94900.25;;;7.71;69.12
15444;BME280;7822;48.146;11.576;2022-11-20T05:25:55;94909.75;;;7.70;69.07
15444;BME280;7822;48.146;11.576;2022-11-20T05:28:27;94898.69;;;7.57;69.31
15444;BME280;7822;48.146;11.576;2022-11-20T05:30:55;94909.00;;;7.57;69.64
15444;BME280;7822;48.146;11.576;2022-11-20T05:33:22;94911.59;;;7.57;69.75
15444;BME280;7822;48.146;11.576;2022-11-20T05:35:50;94906.31;;;7.59;69.50
15444;BME280;7822;48.146;11.576;2022-11-20T05:38:18;94906.78;;;7.64;69.52
15444;BME280;7822;48.146;11.576;2022-11-20T05:40:45;94906.47;;;7.68;69.27
15444;BME280;7822;48.146;11.576;2022-11-20T05:43:13;94912.09;;;7.73;69.17
15444;BME280;7822;48.146;11.576;2022-11-20T05:45:42;94917.28;;;7.73;68.87
15444;BME280;7822;48.146;11.576;2022-11-20T05:48:10;94914.91;;;7.70;69.04
15444;BME280;7822;48.146;11.576;2022-11-20T05:50:37;94914.78;;;7.72;69.09
15444;BME280;7822;48.146;11.576;2022-11-20T05:53:05;94918.53;;;7.68;69.20
15444;BME280;7822;48.146;11.576;2022-11-20T05:55:32;94913.00;;;7.61;69.15
15444;BME280;7822;48.146;11.576;2022-11-20T05:58:00;94923.06;;;7.53;69.45
15444;BME280;7822;48.146;11.576;2022-11-20T06:00:28;94917.91;;;7.53;69.25
15444;BME280;7822;48.146;11.576;2022-11-20T06:02:57;94913.16;;;7.47;69.44
15444;BME280;7822;48.146;11.576;2022-11-20T06:05:24;94920.69;;;7.50;69.33
15444;BME280;7822;48.146;11.576;2022-11-20T06:07:52;94914.03;;;7.59;69.06
15444;BME280;7822;48.146;11.576;2022-11-20T06:10:20;94922.75;;;7.58;68.71
15444;BME280;7822;48.146;11.576;2022-11-20T06:12:47;94917.44;;;7.59;68.94
15444;BME280;7822;48.146;11.576;2022-11-20T06:15:15;94922.63;;;7.59;68.38
15444;BME280;7822;48.146;11.576;2022-11-20T06:17:43;94916.50;;;7.60;68.42
15444;BME280;7822;48.146;11.576;2022-11-20T06:20:12;94917.13;;;7.64;68.12
15444;BME280;7822;48.146;11.576;2022-11-20T06:22:40;94916.16;;;7.65;68.15
15444;BME280;7822;48.146;11.576;2022-11-20T06:25:08;94915.47;;;7.63;67.29
15444;BME280;7822;48.146;11.576;2022-11-20T06:27:35;94909.13;;;7.67;67.33
15444;BME280;7822;48.146;11.576;2022-11-20T06:30:03;94912.16;;;7.61;66.72
15444;BME280;7822;48.146;11.576;2022-11-20T06:32:32;94912.28;;;7.59;66.86
15444;BME280;7822;48.146;11.576;2022-11-20T06:35:00;94919.91;;;7.61;67.14
15444;BME280;7822;48.146;11.576;2022-11-20T06:37:29;94922.81;;;7.56;66.69
15444;BME280;7822;48.146;11.576;2022-11-20T06:39:56;94925.66;;;7.53;66.75
15444;BME280;7822;48.146;11.576;2022-11-20T06:42:24;94928.22;;;7.53;66.38
15444;BME280;7822;48.146;11.576;2022-11-20T06:44:52;94932.44;;;7.54;66.63
15444;BME280;7822;48.146;11.576;2022-11-20T06:47:19;94941.13;;;7.53;66.19
15444;BME280;7822;48.146;11.576;2022-11-20T06:49:47;94939.97;;;7.57;66.04
15444;BME280;7822;48.146;11.576;2022-11-20T06:52:15;94934.47;;;7.62;65.59
15444;BME280;7822;48.146;11.576;2022-11-20T06:54:44;94940.91;;;7.56;65.64
15444;BME280;7822;48.146;11.576;2022-11-20T06:57:11;94954.28;;;7.61;65.27
15444;BME280;7822;48.146;11.576;2022-11-20T06:59:39;94958.13;;;7.56;65.20
15444;BME280;7822;48.146;11.576;2022-11-20T07:02:09;94956.00;;;7.49;65.09
15444;BME280;7822;48.146;11.576;2022-11-20T07:04:37;94954.13;;;7.52;65.08
15444;BME280;7822;48.146;11.576;2022-11-20T07:07:05;94949.91;;;7.51;65.17
15444;BME280;7822;48.146;11.576;2022-11-20T07:09:33;94951.66;;;7.50;65.19
15444;BME280;7822;48.146;11.576;2022-11-20T07:12:02;94962.69;;;7.52;65.18
15444;BME280;7822;48.146;11.576;2022-11-20T07:14:30;94968.25;;;7.59;65.03
15444;BME280;7822;48.146;11.576;2022-11-20T07:16:58;94951.13;;;7.58;64.60
15444;BME280;7822;48.146;11.576;2022-11-20T07:19:25;94960.94;;;7.53;64.75
15444;BME280;7822;48.146;11.576;2022-11-20T07:21:53;94964.06;;;7.45;64.85
15444;BME280;7822;48.146;11.576;2022-11-20T07:24:20;94964.38;;;7.53;65.12
15444;BME280;7822;48.146;11.576;2022-11-20T07:26:48;94968.44;;;7.44;65.28
15444;BME280;7822;48.146;11.576;2022-11-20T07:29:17;94970.94;;;7.57;65.39
15444;BME280;7822;48.146;11.576;2022-11-20T07:31:46;94968.44;;;7.56;65.32
15444;BME280;7822;48.146;11.576;2022-11-20T07:34:13;94975.78;;;7.62;65.62
15444;BME280;7822;48.146;11.576;2022-11-20T07:36:41;94970.38;;;7.65;65.72
15444;BME280;7822;48.146;11.576;2022-11-20T07:39:08;94969.19;;;7.58;65.77
15444;BME280;7822;48.146;11.576;2022-11-20T07:41:36;94964.03;;;7.58;66.20
15444;BME280;7822;48.146;11.576;2022-11-20T07:44:04;94961.91;;;7.63;66.10
15444;BME280;7822;48.146;11.576;2022-11-20T07:46:33;94964.63;;;7.61;66.44
15444;BME280;7822;48.146;11.576;2022-11-20T07:49:01;94968.44;;;7.56;66.31
15444;BME280;7822;48.146;11.576;2022-11-20T07:51:28;94965.28;;;7.52;66.65
15444;BME280;7822;48.146;11.576;2022-11-20T07:53:56;94968.56;;;7.54;66.60
15444;BME280;7822;48.146;11.576;2022-11-20T07:56:24;94963.88;;;7.48;66.53
15444;BME280;7822;48.146;11.576;2022-11-20T07:58:51;94971.41;;;7.51;66.87
15444;BME280;7822;48.146;11.576;2022-11-20T08:01:19;94972.38;;;7.61;66.24
15444;BME280;7822;48.146;11.576;2022-11-20T08:03:48;94971.88;;;7.56;66.07
15444;BME280;7822;48.146;11.576;2022-11-20T08:06:16;94975.06;;;7.60;67.00
15444;BME280;7822;48.146;11.576;2022-11-20T08:08:44;94978.13;;;7.65;66.67
15444;BME280;7822;48.146;11.576;2022-11-20T08:11:12;94971.91;;;7.67;66.29
15444;BME280;7822;48.146;11.576;2022-11-20T08:13:57;94974.56;;;7.55;66.38
15444;BME280;7822;48.146;11.576;2022-11-20T08:16:41;94978.19;;;7.52;66.26
15444;BME280;7822;48.146;11.576;2022-11-20T08:19:11;94969.41;;;7.55;66.50
15444;BME280;7822;48.146;11.576;2022-11-20T08:21:39;94977.03;;;7.56;66.47
15444;BME280;7822;48.146;11.576;2022-11-20T08:24:07;94980.44;;;7.57;66.71
15444;BME280;7822;48.146;11.576;2022-11-20T08:26:36;94984.56;;;7.59;66.56
15444;BME280;7822;48.146;11.576;2022-11-20T08:29:05;94975.28;;;7.57;66.53
15444;BME280;7822;48.146;11.576;2022-11-20T08:31:33;94987.03;;;7.61;66.38
15444;BME280;7822;48.146;11.576;2022-11-20T08:34:01;94988.78;;;7.60;66.03
15444;BME280;7822;48.146;11.576;2022-11-20T08:36:36;94977.41;;;7.63;65.91
15444;BME280;7822;48.146;11.576;2022-11-20T08:39:04;94970.63;;;7.62;66.07
15444;BME280;7822;48.146;11.576;2022-11-20T08:41:31;94980.38;;;7.69;66.26
15444;BME280;7822;48.146;11.576;2022-11-20T08:44:01;94985.19;;;7.74;65.17
15444;BME280;7822;48.146;11.576;2022-11-20T08:46:32;94973.44;;;7.70;65.18
15444;BME280;7822;48.146;11.576;2022-11-20T08:49:08;94988.78;;;7.60;64.91
15444;BME280;7822;48.146;11.576;2022-11-20T08:51:38;94983.28;;;7.65;65.26
15444;BME280;7822;48.146;11.576;2022-11-20T08:54:06;94982.16;;;7.69;65.27
15444;BME280;7822;48.146;11.576;2022-11-20T08:56:34;94982.84;;;7.71;64.68
15444;BME280;7822;48.146;11.576;2022-11-20T08:59:02;94982.19;;;7.80;64.96
15444;BME280;7822;48.146;11.576;2022-11-20T09:01:50;94978.66;;;7.81;64.74
15444;BME280;7822;48.146;11.576;2022-11-20T09:04:17;94976.31;;;7.89;64.62
15444;BME280;7822;48.146;11.576;2022-11-20T09:06:46;94972.34;;;7.96;64.52
15444;BME280;7822;48.146;11.576;2022-11-20T09:09:17;94967.69;;;8.01;64.12
15444;BME280;7822;48.146;11.576;2022-11-20T09:11:45;94964.88;;;8.04;63.84
15444;BME280;7822;48.146;11.576;2022-11-20T09:14:12;94965.22;;;7.99;64.07
15444;BME280;7822;48.146;11.576;2022-11-20T09:16:40;94969.94;;;8.05;63.51
15444;BME280;7822;48.146;11.576;2022-11-20T09:19:08;94971.47;;;8.08;63.62
15444;BME280;7822;48.146;11.576;2022-11-20T09:21:57;94972.41;;;8.18;63.30
15444;BME280;7822;48.146;11.576;2022-11-20T09:24:26;94968.97;;;8.06;62.94
15444;BME280;7822;48.146;11.576;2022-11-20T09:26:54;94971.34;;;8.09;62.41
15444;BME280;7822;48.146;11.576;2022-11-20T09:29:21;94970.28;;;8.12;62.99
15444;BME280;7822;48.146;11.576;2022-11-20T09:31:49;94963.59;;;8.20;62.79
15444;BME280;7822;48.146;11.576;2022-11-20T09:34:17;94966.25;;;8.32;62.64
15444;BME280;7822;48.146;11.576;2022-11-20T09:36:44;94964.72;;;8.29;61.78
15444;BME280;7822;48.146;11.576;2022-11-20T09:39:13;94954.25;;;8.31;61.65
15444;BME280;7822;48.146;11.576;2022-11-20T09:42:02;94961.28;;;8.29;61.85
15444;BME280;7822;48.146;11.576;2022-11-20T09:47:28;94956.38;;;8.26;61.31
15444;BME280;7822;48.146;11.576;2022-11-20T09:50:10;94949.16;;;8.18;61.38
15444;BME280;7822;48.146;11.576;2022-11-20T09:52:54;94956.56;;;8.22;61.53
15444;BME280;7822;48.146;11.576;2022-11-20T09:55:27;94959.19;;;8.34;61.74
15444;BME280;7822;48.146;11.576;2022-11-20T09:57:57;94945.69;;;8.30;60.86
15444;BME280;7822;48.146;11.576;2022-11-20T10:00:28;94942.16;;;8.42;60.97
15444;BME280;7822;48.146;11.576;2022-11-20T10:03:01;94939.72;;;8.41;60.21
15444;BME280;7822;48.146;11.576;2022-11-20T10:05:37;94940.19;;;8.46;60.25
15444;BME280;7822;48.146;11.576;2022-11-20T10:08:15;94938.06;;;8.40;60.37
15444;BME280;7822;48.146;11.576;2022-11-20T10:10:47;94940.63;;;8.51;60.74
15444;BME280;7822;48.146;11.576;2022-11-20T10:13:38;94937.69;;;8.66;60.32
15444;BME280;7822;48.146;11.576;2022-11-20T10:16:17;94932.31;;;8.69;60.47
15444;BME280;7822;48.146;11.576;2022-11-20T10:19:00;94944.97;;;8.72;59.48
15444;BME280;7822;48.146;11.576;2022-11-20T10:21:38;94930.06;;;8.76;59.67
15444;BME280;7822;48.146;11.576;2022-11-20T10:24:28;94932.88;;;8.84;60.00
15444;BME280;7822;48.146;11.576;2022-11-20T10:27:09;94939.09;;;8.81;59.08
15444;BME280;7822;48.146;11.576;2022-11-20T10:29:47;94936.06;;;8.76;59.11
15444;BME280;7822;48.146;11.576;2022-11-20T10:32:20;94940.41;;;8.76;59.32
15444;BME280;7822;48.146;11.576;2022-11-20T10:34:51;94945.59;;;8.76;59.19
15444;BME280;7822;48.146;11.576;2022-11-20T10:37:23;94938.66;;;8.76;59.14
15444;BME280;7822;48.146;11.576;2022-11-20T10:39:58;94935.59;;;8.71;59.34
15444;BME280;7822;48.146;11.576;2022-11-20T10:42:33;94931.00;;;8.64;59.46
15444;BME280;7822;48.146;11.576;2022-11-20T10:45:15;94937.59;;;8.57;59.74
15444;BME280;7822;48.146;11.576;2022-11-20T10:47:44;94929.94;;;8.55;59.76
15444;BME280;7822;48.146;11.576;2022-11-20T10:50:17;94920.66;;;8.64;60.90
15444;BME280;7822;48.146;11.576;2022-11-20T10:52:52;94928.53;;;8.62;59.32
15444;BME280;7822;48.146;11.576;2022-11-20T10:55:29;94931.25;;;8.61;59.72
15444;BME280;7822;48.146;11.576;2022-11-20T10:58:03;94930.91;;;8.65;59.77
15444;BME280;7822;48.146;11.576;2022-11-20T11:00:33;94916.09;;;8.67;59.65
15444;BME280;7822;48.146;11.576;2022-11-20T11:03:01;94924.28;;;8.72;59.35
15444;BME280;7822;48.146;11.576;2022-11-20T11:05:37;94914.69;;;8.74;59.71
15444;BME280;7822;48.146;11.576;2022-11-20T11:08:10;94914.91;;;8.71;59.70
15444;BME280;7822;48.146;11.576;2022-11-20T11:10:44;94913.38;;;8.80;59.59
15444;BME280;7822;48.146;11.576;2022-11-20T11:13:21;94904.53;;;8.93;59.87
15444;BME280;7822;48.146;11.576;2022-11-20T11:15:49;94911.66;;;9.01;59.04
15444;BME280;7822;48.146;11.576;2022-11-20T11:18:25;94913.84;;;8.85;58.98
15444;BME280;7822;48.146;11.576;2022-11-20T11:20:54;94909.50;;;8.74;59.38
15444;BME280;7822;48.146;11.576;2022-11-20T11:23:30;94908.44;;;8.66;59.80
15444;BME280;7822;48.146;11.576;2022-11-20T11:25:59;94921.84;;;8.71;59.98
15444;BME280;7822;48.146;11.576;2022-11-20T11:28:29;94917.38;;;8.73;59.58
15444;BME280;7822;48.146;11.576;2022-11-20T11:30:57;94896.34;;;8.66;59.95
15444;BME280;7822;48.146;11.576;2022-11-20T11:33:27;94909.03;;;8.69;59.89
15444;BME280;7822;48.146;11.576;2022-11-20T11:35:56;94902.47;;;8.65;60.13
15444;BME280;7822;48.146;11.576;2022-11-20T11:38:30;94897.38;;;8.64;59.97
15444;BME280;7822;48.146;11.576;2022-11-20T11:40:58;94897.53;;;8.62;59.88
15444;BME280;7822;48.146;11.576;2022-11-20T11:43:31;94895.41;;;8.56;59.76
15444;BME280;7822;48.146;11.576;2022-11-20T11:46:35;94899.88;;;8.54;59.73
15444;BME280;7822;48.146;11.576;2022-11-20T11:49:15;94900.59;;;8.56;59.70
15444;BME280;7822;48.146;11.576;2022-11-20T11:51:58;94898.47;;;8.50;59.75
15444;BME280;7822;48.146;11.576;2022-11-20T11:54:31;94892.84;;;8.45;60.00
15444;BME280;7822;48.146;11.576;2022-11-20T11:57:07;94901.06;;;8.50;60.22
15444;BME280;7822;48.146;11.576;2022-11-20T11:59:49;94886.84;;;8.56;60.21
15444;BME280;7822;48.146;11.576;2022-11-20T12:02:29;94892.47;;;8.61;60.21
15444;BME280;7822;48.146;11.576;2022-11-20T12:05:02;94896.81;;;8.71;59.91
15444;BME280;7822;48.146;11.576;2022-11-20T12:07:39;94896.81;;;8.71;60.03
15444;BME280;7822;48.146;11.576;2022-11-20T12:10:20;94903.28;;;8.55;60.05
15444;BME280;7822;48.146;11.576;2022-11-20T12:12:52;94946.06;;;8.48;62.03
15444;BME280;7822;48.146;11.576;2022-11-20T12:15:32;94913.94;;;8.06;64.89
15444;BME280;7822;48.146;11.576;2022-11-20T12:18:01;94910.16;;;7.99;65.60
15444;BME280;7822;48.146;11.576;2022-11-20T12:20:33;94908.97;;;8.03;65.73
15444;BME280;7822;48.146;11.576;2022-11-20T12:23:09;94911.56;;;8.03;65.90
15444;BME280;7822;48.146;11.576;2022-11-20T12:25:43;94892.91;;;7.99;65.59
15444;BME280;7822;48.146;11.576;2022-11-20T12:28:30;94902.28;;;8.00;65.19
15444;BME280;7822;48.146;11.576;2022-11-20T12:31:22;94896.41;;;7.98;65.21
15444;BME280;7822;48.146;11.576;2022-11-20T12:34:08;94897.13;;;8.00;64.85
15444;BME280;7822;48.146;11.576;2022-11-20T12:36:46;94888.53;;;8.00;65.62
15444;BME280;7822;48.146;11.576;2022-11-20T12:39:33;94882.91;;;7.95;66.25
15444;BME280;7822;48.146;11.576;2022-11-20T12:42:11;94902.97;;;7.91;65.97
15444;BME280;7822;48.146;11.576;2022-11-20T12:45:21;94891.59;;;7.94;66.29
15444;BME280;7822;48.146;11.576;2022-11-20T12:50:47;94885.41;;;8.07;66.58
15444;BME280;7822;48.146;11.576;2022-11-20T12:53:42;94897.00;;;8.02;66.42
15444;BME280;7822;48.146;11.576;2022-11-20T12:56:21;94888.09;;;7.95;66.89
15444;BME280;7822;48.146;11.576;2022-11-20T12:59:01;94894.19;;;7.94;66.66
15444;BME280;7822;48.146;11.576;2022-11-20T13:01:36;94902.88;;;7.93;66.91
15444;BME280;7822;48.146;11.576;2022-11-20T13:04:22;94898.41;;;7.84;67.01
15444;BME280;7822;48.146;11.576;2022-11-20T13:06:52;94890.31;;;7.88;67.21
15444;BME280;7822;48.146;11.576;2022-11-20T13:09:22;94885.50;;;7.95;67.31
15444;BME280;7822;48.146;11.576;2022-11-20T13:12:01;94876.34;;;7.91;67.63
15444;BME280;7822;48.146;11.576;2022-11-20T13:14:34;94891.00;;;7.90;68.11
15444;BME280;7822;48.146;11.576;2022-11-20T13:17:06;94882.22;;;7.93;68.68
15444;BME280;7822;48.146;11.576;2022-11-20T13:19:39;94881.03;;;7.86;68.22
15444;BME280;7822;48.146;11.576;2022-11-20T13:22:08;94881.59;;;7.78;68.62
15444;BME280;7822;48.146;11.576;2022-11-20T13:24:36;94879.69;;;7.69;68.61
15444;BME280;7822;48.146;11.576;2022-11-20T13:27:17;94888.22;;;7.59;68.71
15444;BME280;7822;48.146;11.576;2022-11-20T13:29:59;94867.47;;;7.60;69.37
15444;BME280;7822;48.146;11.576;2022-11-20T13:32:27;94871.47;;;7.64;69.36
15444;BME280;7822;48.146;11.576;2022-11-20T13:35:01;94870.34;;;7.79;69.03
15444;BME280;7822;48.146;11.576;2022-11-20T13:37:32;94857.50;;;7.67;69.15